Kenesaw, Nebraska
Current Conditions -  °F | °C
As of 4:53 AM on Saturday 20 Dec 2014 (Local Time) from KHSI Reporting Station
Moderate Fog Moderate Fog  
Wind Chill: 26°   Ceiling: 100
Heat Index: 26°   Visibility: 0.25mi
Dew Point: 25°   Wind: 0mph
Humidity: 96%   Direction: NA
Pressure: 30.03"   Gusts: NA
Location:  40.62°N, 98.66°W
Report Text: KHSI 201053Z AUTO 00000KT 1/4SM FZFG VV001 M03/M04 A3003 RMK AO2 SLP189 I1000 T10331039
Loading
Personal Weather Stations






























Interactive Weather Map New forecast layout! Learn more

10-Day Weather Forecast

Advertisements
Track Severe Weather on mobile